createdAt,value
2023-02-13T00:05:42.110Z,13.67
2023-02-13T00:11:35.509Z,12.43
2023-02-13T00:17:31.046Z,11.37
2023-02-13T00:23:24.042Z,11.90
2023-02-13T00:29:17.477Z,13.30
2023-02-13T00:35:12.208Z,12.60
2023-02-13T00:41:06.088Z,13.83
2023-02-13T00:47:00.533Z,14.73
2023-02-13T00:52:55.264Z,15.60
2023-02-13T00:58:48.736Z,15.70
2023-02-13T01:04:41.723Z,15.30
2023-02-13T01:10:36.090Z,16.77
2023-02-13T01:16:29.546Z,16.27
2023-02-13T01:22:22.989Z,16.53
2023-02-13T01:28:17.352Z,17.53
2023-02-13T01:34:10.830Z,15.70
2023-02-13T01:40:04.251Z,15.80
2023-02-13T01:46:00.804Z,16.40
2023-02-13T01:51:57.141Z,16.40
2023-02-13T01:57:55.000Z,15.43
2023-02-13T02:03:53.375Z,15.53
2023-02-13T02:09:47.676Z,15.40
2023-02-13T02:15:43.977Z,14.70
2023-02-13T02:22:17.280Z,14.63
2023-02-13T02:28:31.550Z,13.70
2023-02-13T02:34:37.840Z,13.70
2023-02-13T02:40:39.155Z,15.13
2023-02-13T02:46:37.542Z,12.17
2023-02-13T02:52:45.194Z,12.43
2023-02-13T02:59:03.116Z,13.37
2023-02-13T03:05:19.344Z,11.80
2023-02-13T03:11:32.010Z,11.60
2023-02-13T03:17:42.583Z,11.90
2023-02-13T03:23:47.907Z,10.97
2023-02-13T03:30:12.733Z,11.27
2023-02-13T03:36:30.758Z,10.70
2023-02-13T03:42:33.629Z,10.40
2023-02-13T03:48:49.836Z,9.97
2023-02-13T03:55:04.561Z,10.50
2023-02-13T04:01:02.374Z,10.00
2023-02-13T04:07:01.405Z,8.37
2023-02-13T04:13:01.972Z,9.83
2023-02-13T04:18:57.248Z,9.37
2023-02-13T04:24:51.713Z,9.60
2023-02-13T04:30:45.191Z,10.10
2023-02-13T04:36:38.602Z,9.87
2023-02-13T04:42:32.933Z,10.70
2023-02-13T04:48:26.073Z,9.63
2023-02-13T04:54:19.064Z,10.40
2023-02-13T05:00:14.849Z,10.20
2023-02-13T05:06:08.690Z,9.27
2023-02-13T05:12:01.922Z,9.60
2023-02-13T05:17:56.412Z,10.73
2023-02-13T05:23:50.243Z,9.13
2023-02-13T05:29:43.593Z,10.00
2023-02-13T05:35:38.876Z,9.70
2023-02-13T05:41:31.945Z,9.67
2023-02-13T05:47:25.349Z,9.53
2023-02-13T05:53:19.645Z,10.00
2023-02-13T05:59:13.008Z,9.70
2023-02-13T06:05:06.741Z,10.17
2023-02-13T06:11:01.381Z,9.63
2023-02-13T06:16:54.593Z,10.43
2023-02-13T06:22:49.602Z,9.43
2023-02-13T06:28:44.069Z,9.20
2023-02-13T06:34:37.352Z,9.47
2023-02-13T06:40:30.477Z,9.47
2023-02-13T06:46:25.291Z,9.57
2023-02-13T06:52:18.309Z,10.33
2023-02-13T06:58:11.835Z,9.90
2023-02-13T07:04:06.340Z,10.03
2023-02-13T07:09:59.709Z,9.40
2023-02-13T07:15:52.815Z,10.30
2023-02-13T07:21:47.100Z,9.97
2023-02-13T07:27:41.635Z,9.70
2023-02-13T07:33:35.217Z,9.53
2023-02-13T07:39:31.737Z,9.50
2023-02-13T07:45:25.456Z,8.93
2023-02-13T07:51:19.021Z,10.37
2023-02-13T07:57:13.497Z,9.40
2023-02-13T08:03:07.035Z,9.07
2023-02-13T08:09:18.032Z,10.13
2023-02-13T08:15:13.845Z,9.83
2023-02-13T08:21:07.604Z,9.63
2023-02-13T08:27:01.156Z,10.10
2023-02-13T08:32:56.179Z,9.83
2023-02-13T08:38:50.019Z,9.80
2023-02-13T08:44:43.127Z,10.27
2023-02-13T08:50:37.952Z,10.20
2023-02-13T08:56:31.486Z,9.80
2023-02-13T09:02:25.051Z,10.00
2023-02-13T09:08:19.470Z,10.20
2023-02-13T09:14:13.008Z,10.37
2023-02-13T09:20:07.356Z,11.33
2023-02-13T09:26:11.443Z,10.53
2023-02-13T09:32:05.917Z,11.23
2023-02-13T09:38:01.798Z,11.30
2023-02-13T09:44:00.580Z,11.90
2023-02-13T09:49:57.365Z,10.80
2023-02-13T09:56:00.689Z,12.17
2023-02-13T10:01:57.737Z,11.97
2023-02-13T10:08:01.834Z,10.13
2023-02-13T10:14:03.553Z,11.10
2023-02-13T10:20:02.584Z,11.20
2023-02-13T10:25:59.402Z,11.27
2023-02-13T10:31:55.815Z,11.90
2023-02-13T10:37:54.832Z,11.53
2023-02-13T10:43:56.430Z,11.67
2023-02-13T10:50:04.284Z,11.80
2023-02-13T10:56:07.222Z,13.10
2023-02-13T11:02:04.865Z,12.03
2023-02-13T11:08:01.926Z,12.80
2023-02-13T11:14:10.346Z,13.80
2023-02-13T11:20:07.870Z,13.33
2023-02-13T11:26:03.294Z,12.30
2023-02-13T11:32:19.454Z,14.67
2023-02-13T11:38:22.206Z,13.67
2023-02-13T11:44:26.595Z,14.30
2023-02-13T11:50:27.716Z,14.93
2023-02-13T11:56:21.055Z,14.20
2023-02-13T12:02:20.236Z,14.50
2023-02-13T12:08:15.320Z,14.20
2023-02-13T12:14:13.021Z,12.87
2023-02-13T12:20:08.584Z,13.87
2023-02-13T12:26:15.095Z,15.10
2023-02-13T12:32:20.481Z,12.80
2023-02-13T12:38:30.064Z,14.40
2023-02-13T12:44:57.210Z,14.80
2023-02-13T12:51:01.258Z,13.13
2023-02-13T12:57:18.470Z,15.20
2023-02-13T13:03:35.058Z,13.93
2023-02-13T13:09:54.468Z,13.17
2023-02-13T13:16:00.236Z,13.50
2023-02-13T13:22:00.171Z,14.50
2023-02-13T13:27:58.670Z,15.10
2023-02-13T13:33:52.483Z,16.10
2023-02-13T13:39:53.766Z,16.20
2023-02-13T13:45:50.807Z,15.57
2023-02-13T13:51:44.450Z,15.30
2023-02-13T13:58:02.904Z,16.73
2023-02-13T14:03:57.777Z,14.97
2023-02-13T14:09:51.296Z,14.73
2023-02-13T14:15:55.492Z,15.67
2023-02-13T14:21:49.142Z,14.67
2023-02-13T14:27:42.219Z,15.00
2023-02-13T14:33:36.812Z,16.47
2023-02-13T14:39:31.811Z,14.63
2023-02-13T14:45:29.083Z,14.23
2023-02-13T14:51:30.784Z,14.97
2023-02-13T14:57:28.054Z,17.03
2023-02-13T15:03:28.548Z,16.30
2023-02-13T15:09:40.057Z,15.37
2023-02-13T15:15:36.428Z,17.13
2023-02-13T15:21:33.623Z,19.00
2023-02-13T15:27:30.427Z,16.33
2023-02-13T15:33:25.235Z,17.50
2023-02-13T15:39:21.790Z,17.97
2023-02-13T15:45:18.843Z,17.80
2023-02-13T15:51:21.222Z,18.50
2023-02-13T15:57:14.908Z,16.90
2023-02-13T16:03:16.663Z,18.07
2023-02-13T16:09:24.741Z,16.70
2023-02-13T16:15:21.223Z,16.97
2023-02-13T16:21:15.978Z,16.80
2023-02-13T16:27:15.759Z,18.70
2023-02-13T16:33:21.035Z,19.00
2023-02-13T16:39:24.426Z,19.47
2023-02-13T16:45:25.393Z,18.23
2023-02-13T16:51:26.861Z,17.23
2023-02-13T16:57:25.610Z,16.67
2023-02-13T17:03:19.102Z,20.67
2023-02-13T17:09:12.691Z,17.67
2023-02-13T17:15:13.624Z,19.00
2023-02-13T17:21:07.366Z,18.90
2023-02-13T17:27:01.450Z,16.93
2023-02-13T17:33:00.349Z,18.63
2023-02-13T17:38:53.348Z,18.27
2023-02-13T17:44:47.243Z,17.40
2023-02-13T17:50:42.455Z,17.87
2023-02-13T17:56:35.448Z,18.57
2023-02-13T18:02:28.862Z,18.33
2023-02-13T18:08:23.657Z,17.47
2023-02-13T18:14:17.347Z,17.47
2023-02-13T18:20:13.381Z,18.57
2023-02-13T18:26:11.502Z,18.67
2023-02-13T18:32:08.126Z,19.90
2023-02-13T18:38:03.064Z,19.27
2023-02-13T18:43:59.406Z,20.53
2023-02-13T18:49:52.853Z,19.67
2023-02-13T18:55:46.370Z,20.03
2023-02-13T19:01:41.668Z,18.40
2023-02-13T19:07:34.719Z,20.70
2023-02-13T19:13:27.779Z,18.60
2023-02-13T19:19:22.625Z,19.30
2023-02-13T19:25:15.771Z,18.17
2023-02-13T19:31:11.441Z,18.30
2023-02-13T19:37:05.901Z,18.00
2023-02-13T19:42:59.852Z,19.00
2023-02-13T19:48:53.623Z,17.83
2023-02-13T19:54:49.186Z,16.83
2023-02-13T20:00:42.638Z,19.23
2023-02-13T20:06:37.783Z,18.90
2023-02-13T20:12:32.178Z,19.20
2023-02-13T20:18:25.609Z,19.40
2023-02-13T20:24:19.016Z,22.20
2023-02-13T20:30:15.636Z,22.23
2023-02-13T20:36:13.168Z,22.23
2023-02-13T20:42:07.067Z,20.13
2023-02-13T20:48:01.873Z,17.90
2023-02-13T20:53:56.024Z,19.87
2023-02-13T20:59:49.089Z,20.20
2023-02-13T21:05:44.332Z,20.83
2023-02-13T21:11:39.047Z,21.03
2023-02-13T21:17:32.477Z,22.27
2023-02-13T21:23:27.285Z,21.00
2023-02-13T21:29:20.964Z,21.80
2023-02-13T21:35:14.442Z,21.60
2023-02-13T21:41:10.807Z,19.77
2023-02-13T21:47:06.769Z,21.30
2023-02-13T21:53:00.110Z,20.63
2023-02-13T21:58:55.099Z,20.30
2023-02-13T22:04:48.110Z,19.80
2023-02-13T22:10:41.182Z,20.20
2023-02-13T22:16:37.700Z,21.87
2023-02-13T22:22:31.188Z,19.40
2023-02-13T22:28:24.557Z,19.67
2023-02-13T22:34:19.954Z,19.80
2023-02-13T22:40:14.116Z,20.43
2023-02-13T22:46:09.783Z,20.63
2023-02-13T22:52:04.853Z,18.80
2023-02-13T22:57:58.783Z,18.90
2023-02-13T23:03:52.586Z,20.90
2023-02-13T23:09:47.438Z,21.20
2023-02-13T23:15:40.977Z,19.27
2023-02-13T23:21:34.620Z,21.23
2023-02-13T23:27:29.469Z,18.80
2023-02-13T23:33:22.881Z,19.60
2023-02-13T23:39:16.838Z,19.97
2023-02-13T23:45:12.156Z,18.50
2023-02-13T23:51:05.841Z,20.50
2023-02-13T23:56:58.996Z,18.40
